sensor_id;sensor_type;location;lat;lon;timestamp;pressure;altitude;pressure_sealevel;temperature;humidity
19884;BME280;10104;50.732;10.174;2023-02-16T00:02:17;98914.97;;;1.46;95.79
19884;BME280;10104;50.732;10.174;2023-02-16T00:04:38;98913.28;;;1.33;95.58
19884;BME280;10104;50.732;10.174;2023-02-16T00:07:01;98916.00;;;1.44;95.17
19884;BME280;10104;50.732;10.174;2023-02-16T00:09:23;98909.81;;;1.57;94.10
19884;BME280;10104;50.732;10.174;2023-02-16T00:11:45;98904.50;;;1.59;94.13
19884;BME280;10104;50.732;10.174;2023-02-16T00:14:26;98901.50;;;1.40;94.03
19884;BME280;10104;50.732;10.174;2023-02-16T00:16:49;98899.31;;;1.46;93.00
19884;BME280;10104;50.732;10.174;2023-02-16T00:21:42;98902.31;;;1.53;93.25
19884;BME280;10104;50.732;10.174;2023-02-16T00:24:04;98904.78;;;1.67;93.09
19884;BME280;10104;50.732;10.174;2023-02-16T00:26:26;98896.34;;;1.63;92.52
19884;BME280;10104;50.732;10.174;2023-02-16T00:28:51;98902.41;;;1.64;92.18
19884;BME280;10104;50.732;10.174;2023-02-16T00:31:16;98895.84;;;1.46;91.54
19884;BME280;10104;50.732;10.174;2023-02-16T00:33:38;98893.34;;;1.57;92.25
19884;BME280;10104;50.732;10.174;2023-02-16T00:36:00;98893.94;;;1.60;91.83
19884;BME280;10104;50.732;10.174;2023-02-16T00:38:21;98889.88;;;1.69;91.70
19884;BME280;10104;50.732;10.174;2023-02-16T00:40:43;98888.19;;;1.68;91.31
19884;BME280;10104;50.732;10.174;2023-02-16T00:43:05;98883.91;;;1.67;90.36
19884;BME280;10104;50.732;10.174;2023-02-16T00:45:27;98882.91;;;1.57;89.34
19884;BME280;10104;50.732;10.174;2023-02-16T00:47:50;98886.34;;;1.57;89.81
19884;BME280;10104;50.732;10.174;2023-02-16T00:50:29;98886.34;;;1.45;89.18
19884;BME280;10104;50.732;10.174;2023-02-16T00:52:51;98890.13;;;1.53;89.25
19884;BME280;10104;50.732;10.174;2023-02-16T00:55:15;98884.06;;;1.53;88.80
19884;BME280;10104;50.732;10.174;2023-02-16T00:58:23;98881.47;;;1.40;88.84
19884;BME280;10104;50.732;10.174;2023-02-16T01:00:43;98892.31;;;1.47;88.98
19884;BME280;10104;50.732;10.174;2023-02-16T01:03:11;98885.75;;;1.29;88.96
19884;BME280;10104;50.732;10.174;2023-02-16T01:05:33;98885.94;;;1.26;88.90
19884;BME280;10104;50.732;10.174;2023-02-16T01:07:56;98884.19;;;1.26;89.32
19884;BME280;10104;50.732;10.174;2023-02-16T01:10:37;98877.53;;;1.22;89.72
19884;BME280;10104;50.732;10.174;2023-02-16T01:13:17;98890.75;;;1.06;89.96
19884;BME280;10104;50.732;10.174;2023-02-16T01:15:39;98895.88;;;1.20;89.43
19884;BME280;10104;50.732;10.174;2023-02-16T01:18:01;98891.06;;;1.27;89.25
19884;BME280;10104;50.732;10.174;2023-02-16T01:20:25;98881.38;;;1.29;89.36
19884;BME280;10104;50.732;10.174;2023-02-16T01:22:47;98874.91;;;1.35;89.13
19884;BME280;10104;50.732;10.174;2023-02-16T01:25:09;98870.41;;;1.24;89.11
19884;BME280;10104;50.732;10.174;2023-02-16T01:27:31;98869.78;;;1.08;89.59
19884;BME280;10104;50.732;10.174;2023-02-16T01:29:53;98868.22;;;1.18;89.56
19884;BME280;10104;50.732;10.174;2023-02-16T01:32:14;98867.69;;;1.26;88.99
19884;BME280;10104;50.732;10.174;2023-02-16T01:34:36;98867.59;;;1.27;88.66
19884;BME280;10104;50.732;10.174;2023-02-16T01:36:58;98863.72;;;1.33;88.36
19884;BME280;10104;50.732;10.174;2023-02-16T01:39:20;98868.84;;;1.34;88.11
19884;BME280;10104;50.732;10.174;2023-02-16T01:44:28;98881.56;;;1.39;87.82
19884;BME280;10104;50.732;10.174;2023-02-16T01:47:01;98868.94;;;1.33;88.32
19884;BME280;10104;50.732;10.174;2023-02-16T01:49:25;98871.88;;;1.41;88.35
19884;BME280;10104;50.732;10.174;2023-02-16T01:54:35;98868.53;;;1.39;88.06
19884;BME280;10104;50.732;10.174;2023-02-16T01:57:49;98857.25;;;1.38;87.73
19884;BME280;10104;50.732;10.174;2023-02-16T02:00:07;98860.63;;;1.15;90.03
19884;BME280;10104;50.732;10.174;2023-02-16T02:02:39;98865.84;;;1.02;89.74
19884;BME280;10104;50.732;10.174;2023-02-16T02:05:18;98863.84;;;1.18;88.47
19884;BME280;10104;50.732;10.174;2023-02-16T02:08:02;98860.28;;;1.19;87.85
19884;BME280;10104;50.732;10.174;2023-02-16T02:15:33;98858.00;;;0.90;88.60
19884;BME280;10104;50.732;10.174;2023-02-16T02:17:55;98860.28;;;0.94;87.88
19884;BME280;10104;50.732;10.174;2023-02-16T02:20:23;98856.97;;;1.05;88.45
19884;BME280;10104;50.732;10.174;2023-02-16T02:29:16;98836.41;;;1.13;87.54
19884;BME280;10104;50.732;10.174;2023-02-16T02:31:49;98838.06;;;1.14;87.82
19884;BME280;10104;50.732;10.174;2023-02-16T02:37:15;98835.78;;;1.09;87.64
19884;BME280;10104;50.732;10.174;2023-02-16T02:39:49;98838.50;;;1.08;87.58
19884;BME280;10104;50.732;10.174;2023-02-16T02:42:53;98829.31;;;1.15;87.64
19884;BME280;10104;50.732;10.174;2023-02-16T02:45:23;98829.66;;;0.85;86.95
19884;BME280;10104;50.732;10.174;2023-02-16T02:47:47;98832.25;;;0.98;87.14
19884;BME280;10104;50.732;10.174;2023-02-16T02:50:31;98827.25;;;0.95;87.11
19884;BME280;10104;50.732;10.174;2023-02-16T02:53:02;98826.72;;;1.02;86.63
19884;BME280;10104;50.732;10.174;2023-02-16T02:55:24;98829.66;;;0.98;86.95
19884;BME280;10104;50.732;10.174;2023-02-16T02:58:05;98832.69;;;1.04;87.12
19884;BME280;10104;50.732;10.174;2023-02-16T03:00:45;98822.03;;;0.95;87.36
19884;BME280;10104;50.732;10.174;2023-02-16T03:03:32;98823.78;;;1.07;87.75
19884;BME280;10104;50.732;10.174;2023-02-16T03:05:57;98824.22;;;1.01;87.75
19884;BME280;10104;50.732;10.174;2023-02-16T03:08:23;98828.50;;;1.02;87.77
19884;BME280;10104;50.732;10.174;2023-02-16T03:11:05;98825.88;;;1.02;87.55
19884;BME280;10104;50.732;10.174;2023-02-16T03:14:01;98827.66;;;1.01;87.56
19884;BME280;10104;50.732;10.174;2023-02-16T03:16:30;98829.53;;;0.99;87.57
19884;BME280;10104;50.732;10.174;2023-02-16T03:18:55;98836.63;;;0.97;87.60
19884;BME280;10104;50.732;10.174;2023-02-16T03:21:35;98845.72;;;0.92;87.35
19884;BME280;10104;50.732;10.174;2023-02-16T03:24:24;98833.38;;;0.94;87.00
19884;BME280;10104;50.732;10.174;2023-02-16T03:27:06;98827.66;;;0.76;86.54
19884;BME280;10104;50.732;10.174;2023-02-16T03:29:49;98832.66;;;0.66;87.31
19884;BME280;10104;50.732;10.174;2023-02-16T03:32:11;98831.31;;;0.73;87.12
19884;BME280;10104;50.732;10.174;2023-02-16T03:34:35;98822.34;;;0.77;87.22
19884;BME280;10104;50.732;10.174;2023-02-16T03:36:57;98833.16;;;0.46;86.87
19884;BME280;10104;50.732;10.174;2023-02-16T03:39:20;98833.56;;;0.53;87.34
19884;BME280;10104;50.732;10.174;2023-02-16T03:41:46;98836.63;;;0.59;86.76
19884;BME280;10104;50.732;10.174;2023-02-16T03:44:09;98840.16;;;0.58;86.74
19884;BME280;10104;50.732;10.174;2023-02-16T03:46:30;98835.38;;;0.65;86.71
19884;BME280;10104;50.732;10.174;2023-02-16T03:48:52;98836.53;;;0.61;86.61
19884;BME280;10104;50.732;10.174;2023-02-16T03:51:13;98835.19;;;0.68;86.47
19884;BME280;10104;50.732;10.174;2023-02-16T03:53:35;98830.03;;;0.54;88.02
19884;BME280;10104;50.732;10.174;2023-02-16T03:55:56;98831.69;;;0.42;90.64
19884;BME280;10104;50.732;10.174;2023-02-16T03:58:21;98829.84;;;0.69;87.76
19884;BME280;10104;50.732;10.174;2023-02-16T04:00:43;98827.47;;;0.66;87.08
19884;BME280;10104;50.732;10.174;2023-02-16T04:03:05;98829.31;;;0.64;86.88
19884;BME280;10104;50.732;10.174;2023-02-16T04:05:26;98826.38;;;0.56;86.89
19884;BME280;10104;50.732;10.174;2023-02-16T04:07:48;98829.41;;;0.63;87.18
19884;BME280;10104;50.732;10.174;2023-02-16T04:10:09;98828.66;;;0.35;88.67
19884;BME280;10104;50.732;10.174;2023-02-16T04:12:31;98829.59;;;0.34;88.57
19884;BME280;10104;50.732;10.174;2023-02-16T04:14:58;98828.56;;;0.37;87.88
19884;BME280;10104;50.732;10.174;2023-02-16T04:17:20;98840.88;;;0.48;88.20
19884;BME280;10104;50.732;10.174;2023-02-16T04:19:41;98827.84;;;0.48;88.21
19884;BME280;10104;50.732;10.174;2023-02-16T04:22:02;98819.63;;;0.54;88.20
19884;BME280;10104;50.732;10.174;2023-02-16T04:24:24;98813.34;;;0.56;88.54
19884;BME280;10104;50.732;10.174;2023-02-16T04:26:45;98811.47;;;0.46;88.82
19884;BME280;10104;50.732;10.174;2023-02-16T04:29:08;98817.84;;;0.42;89.10
19884;BME280;10104;50.732;10.174;2023-02-16T04:31:29;98820.66;;;0.51;87.73
19884;BME280;10104;50.732;10.174;2023-02-16T04:33:51;98829.13;;;0.55;87.29
19884;BME280;10104;50.732;10.174;2023-02-16T04:36:12;98830.16;;;0.65;87.14
19884;BME280;10104;50.732;10.174;2023-02-16T04:38:34;98831.09;;;0.64;86.67
19884;BME280;10104;50.732;10.174;2023-02-16T04:40:55;98828.28;;;0.67;86.96
19884;BME280;10104;50.732;10.174;2023-02-16T04:43:17;98827.66;;;0.63;87.22
19884;BME280;10104;50.732;10.174;2023-02-16T04:45:38;98818.28;;;0.61;87.74
19884;BME280;10104;50.732;10.174;2023-02-16T04:47:59;98819.41;;;0.69;87.16
19884;BME280;10104;50.732;10.174;2023-02-16T04:50:21;98818.38;;;0.72;86.87
19884;BME280;10104;50.732;10.174;2023-02-16T04:52:42;98818.44;;;0.45;88.75
19884;BME280;10104;50.732;10.174;2023-02-16T04:55:05;98825.03;;;0.51;87.78
19884;BME280;10104;50.732;10.174;2023-02-16T04:57:27;98824.75;;;0.55;87.61
19884;BME280;10104;50.732;10.174;2023-02-16T04:59:49;98834.72;;;0.49;87.69
19884;BME280;10104;50.732;10.174;2023-02-16T05:02:10;98837.13;;;0.64;88.06
19884;BME280;10104;50.732;10.174;2023-02-16T05:04:32;98836.19;;;0.65;87.96
19884;BME280;10104;50.732;10.174;2023-02-16T05:06:54;98835.38;;;0.65;88.45
19884;BME280;10104;50.732;10.174;2023-02-16T05:09:15;98837.94;;;0.39;89.79
19884;BME280;10104;50.732;10.174;2023-02-16T05:11:37;98838.06;;;0.63;89.32
19884;BME280;10104;50.732;10.174;2023-02-16T05:14:27;98843.69;;;0.70;88.93
19884;BME280;10104;50.732;10.174;2023-02-16T05:17:02;98847.88;;;0.72;88.42
19884;BME280;10104;50.732;10.174;2023-02-16T05:19:23;98836.94;;;0.67;88.93
19884;BME280;10104;50.732;10.174;2023-02-16T05:21:45;98846.53;;;0.67;89.08
19884;BME280;10104;50.732;10.174;2023-02-16T05:24:08;98846.53;;;0.67;89.15
19884;BME280;10104;50.732;10.174;2023-02-16T05:26:31;98844.53;;;0.70;89.13
19884;BME280;10104;50.732;10.174;2023-02-16T05:28:53;98836.41;;;0.62;89.17
19884;BME280;10104;50.732;10.174;2023-02-16T05:31:15;98839.44;;;0.69;88.91
19884;BME280;10104;50.732;10.174;2023-02-16T05:33:37;98842.00;;;0.44;89.28
19884;BME280;10104;50.732;10.174;2023-02-16T05:35:58;98832.53;;;0.43;89.08
19884;BME280;10104;50.732;10.174;2023-02-16T05:38:20;98829.81;;;0.44;89.29
19884;BME280;10104;50.732;10.174;2023-02-16T05:40:41;98833.25;;;0.45;88.80
19884;BME280;10104;50.732;10.174;2023-02-16T05:43:02;98837.75;;;0.43;88.72
19884;BME280;10104;50.732;10.174;2023-02-16T05:45:24;98833.47;;;0.42;90.90
19884;BME280;10104;50.732;10.174;2023-02-16T05:47:45;98826.63;;;-0.13;96.79
19884;BME280;10104;50.732;10.174;2023-02-16T05:50:07;98837.38;;;-0.32;99.48
19884;BME280;10104;50.732;10.174;2023-02-16T05:52:29;98846.38;;;0.04;96.74
19884;BME280;10104;50.732;10.174;2023-02-16T05:54:50;98832.13;;;0.09;95.68
19884;BME280;10104;50.732;10.174;2023-02-16T05:57:12;98847.44;;;0.14;94.69
19884;BME280;10104;50.732;10.174;2023-02-16T05:59:33;98846.53;;;0.27;94.48
19884;BME280;10104;50.732;10.174;2023-02-16T06:01:55;98842.63;;;0.47;92.45
19884;BME280;10104;50.732;10.174;2023-02-16T06:04:16;98837.59;;;0.31;92.46
19884;BME280;10104;50.732;10.174;2023-02-16T06:06:38;98838.03;;;0.38;93.00
19884;BME280;10104;50.732;10.174;2023-02-16T06:08:59;98835.84;;;0.45;92.33
19884;BME280;10104;50.732;10.174;2023-02-16T06:11:21;98841.50;;;0.51;91.73
19884;BME280;10104;50.732;10.174;2023-02-16T06:13:58;98838.81;;;0.26;91.59
19884;BME280;10104;50.732;10.174;2023-02-16T06:16:20;98845.72;;;0.27;91.59
19884;BME280;10104;50.732;10.174;2023-02-16T06:18:41;98841.16;;;0.30;90.93
19884;BME280;10104;50.732;10.174;2023-02-16T06:21:05;98848.16;;;0.43;91.18
19884;BME280;10104;50.732;10.174;2023-02-16T06:23:26;98841.91;;;0.45;91.26
19884;BME280;10104;50.732;10.174;2023-02-16T06:25:48;98839.13;;;0.61;91.96
19884;BME280;10104;50.732;10.174;2023-02-16T06:28:11;98841.09;;;0.70;91.43
19884;BME280;10104;50.732;10.174;2023-02-16T06:30:33;98829.22;;;0.66;91.38
19884;BME280;10104;50.732;10.174;2023-02-16T06:32:55;98835.47;;;0.76;90.33
19884;BME280;10104;50.732;10.174;2023-02-16T06:35:17;98837.66;;;0.82;90.15
19884;BME280;10104;50.732;10.174;2023-02-16T06:37:38;98847.59;;;0.90;90.43
19884;BME280;10104;50.732;10.174;2023-02-16T06:40:00;98844.13;;;1.02;89.36
19884;BME280;10104;50.732;10.174;2023-02-16T06:42:21;98836.94;;;0.93;89.40
19884;BME280;10104;50.732;10.174;2023-02-16T06:44:43;98841.53;;;0.89;89.58
19884;BME280;10104;50.732;10.174;2023-02-16T06:47:05;98837.34;;;0.87;89.26
19884;BME280;10104;50.732;10.174;2023-02-16T06:49:26;98831.00;;;0.91;89.66
19884;BME280;10104;50.732;10.174;2023-02-16T06:51:48;98826.22;;;0.97;89.43
19884;BME280;10104;50.732;10.174;2023-02-16T06:54:11;98835.38;;;0.77;89.86
19884;BME280;10104;50.732;10.174;2023-02-16T06:56:32;98830.56;;;0.59;90.49
19884;BME280;10104;50.732;10.174;2023-02-16T06:58:56;98829.41;;;0.63;90.43
19884;BME280;10104;50.732;10.174;2023-02-16T07:01:17;98832.34;;;0.71;89.62
19884;BME280;10104;50.732;10.174;2023-02-16T07:03:43;98836.50;;;0.48;89.72
19884;BME280;10104;50.732;10.174;2023-02-16T07:06:05;98835.38;;;0.25;91.55
19884;BME280;10104;50.732;10.174;2023-02-16T07:08:26;98827.56;;;0.25;93.19
19884;BME280;10104;50.732;10.174;2023-02-16T07:10:48;98827.84;;;0.48;93.31
19884;BME280;10104;50.732;10.174;2023-02-16T07:13:11;98835.03;;;0.57;94.62
19884;BME280;10104;50.732;10.174;2023-02-16T07:15:32;98843.38;;;0.62;94.93
19884;BME280;10104;50.732;10.174;2023-02-16T07:17:54;98849.56;;;0.86;94.46
19884;BME280;10104;50.732;10.174;2023-02-16T07:20:15;98852.56;;;0.93;94.88
19884;BME280;10104;50.732;10.174;2023-02-16T07:22:38;98850.28;;;0.75;96.92
19884;BME280;10104;50.732;10.174;2023-02-16T07:25:00;98850.38;;;0.87;95.89
19884;BME280;10104;50.732;10.174;2023-02-16T07:27:23;98855.91;;;0.69;97.94
19884;BME280;10104;50.732;10.174;2023-02-16T07:29:45;98860.81;;;0.61;98.59
19884;BME280;10104;50.732;10.174;2023-02-16T07:32:07;98855.19;;;0.67;98.40
19884;BME280;10104;50.732;10.174;2023-02-16T07:34:29;98866.66;;;0.77;97.66
19884;BME280;10104;50.732;10.174;2023-02-16T07:36:50;98862.59;;;0.86;96.76
19884;BME280;10104;50.732;10.174;2023-02-16T07:39:12;98870.31;;;1.00;96.17
19884;BME280;10104;50.732;10.174;2023-02-16T07:41:33;98870.53;;;1.10;95.94
19884;BME280;10104;50.732;10.174;2023-02-16T07:43:55;98868.63;;;1.25;94.72
19884;BME280;10104;50.732;10.174;2023-02-16T07:46:16;98872.72;;;1.29;94.21
19884;BME280;10104;50.732;10.174;2023-02-16T07:48:38;98871.09;;;1.64;93.00
19884;BME280;10104;50.732;10.174;2023-02-16T07:50:59;98866.34;;;1.82;91.96
19884;BME280;10104;50.732;10.174;2023-02-16T07:53:22;98861.22;;;1.80;91.21
19884;BME280;10104;50.732;10.174;2023-02-16T07:55:44;98862.16;;;1.79;92.58
19884;BME280;10104;50.732;10.174;2023-02-16T07:58:06;98855.72;;;1.72;92.65
19884;BME280;10104;50.732;10.174;2023-02-16T08:00:28;98858.06;;;1.88;92.11
19884;BME280;10104;50.732;10.174;2023-02-16T08:02:49;98861.19;;;1.93;92.30
19884;BME280;10104;50.732;10.174;2023-02-16T08:05:11;98857.31;;;1.62;93.51
19884;BME280;10104;50.732;10.174;2023-02-16T08:07:33;98863.34;;;1.62;94.34
19884;BME280;10104;50.732;10.174;2023-02-16T08:09:54;98864.72;;;1.55;95.57
19884;BME280;10104;50.732;10.174;2023-02-16T08:12:16;98861.25;;;1.68;94.98
19884;BME280;10104;50.732;10.174;2023-02-16T08:14:38;98862.28;;;1.78;95.36
19884;BME280;10104;50.732;10.174;2023-02-16T08:17:00;98860.91;;;1.85;95.00
19884;BME280;10104;50.732;10.174;2023-02-16T08:19:22;98864.56;;;1.82;95.11
19884;BME280;10104;50.732;10.174;2023-02-16T08:21:43;98854.84;;;1.84;95.40
19884;BME280;10104;50.732;10.174;2023-02-16T08:24:11;98867.63;;;2.00;94.46
19884;BME280;10104;50.732;10.174;2023-02-16T08:26:36;98860.22;;;1.70;96.40
19884;BME280;10104;50.732;10.174;2023-02-16T08:28:58;98859.06;;;1.61;97.29
19884;BME280;10104;50.732;10.174;2023-02-16T08:31:23;98861.84;;;1.84;96.61
19884;BME280;10104;50.732;10.174;2023-02-16T08:33:46;98875.91;;;1.94;96.82
19884;BME280;10104;50.732;10.174;2023-02-16T08:36:19;98869.59;;;2.09;96.06
19884;BME280;10104;50.732;10.174;2023-02-16T08:38:40;98870.47;;;2.21;95.20
19884;BME280;10104;50.732;10.174;2023-02-16T08:41:03;98863.59;;;2.20;95.59
19884;BME280;10104;50.732;10.174;2023-02-16T08:43:25;98872.34;;;2.19;96.06
19884;BME280;10104;50.732;10.174;2023-02-16T08:45:47;98876.78;;;2.29;95.35
19884;BME280;10104;50.732;10.174;2023-02-16T08:48:10;98878.81;;;2.26;95.71
19884;BME280;10104;50.732;10.174;2023-02-16T08:50:31;98878.97;;;2.59;94.33
19884;BME280;10104;50.732;10.174;2023-02-16T08:52:53;98874.25;;;2.40;95.13
19884;BME280;10104;50.732;10.174;2023-02-16T08:55:14;98883.81;;;2.29;95.19
19884;BME280;10104;50.732;10.174;2023-02-16T08:57:37;98887.50;;;2.26;95.81
19884;BME280;10104;50.732;10.174;2023-02-16T08:59:59;98879.53;;;2.52;94.59
19884;BME280;10104;50.732;10.174;2023-02-16T09:02:43;98877.31;;;2.69;93.67
19884;BME280;10104;50.732;10.174;2023-02-16T09:05:05;98880.16;;;2.66;93.29
19884;BME280;10104;50.732;10.174;2023-02-16T09:07:26;98878.84;;;2.72;93.02
19884;BME280;10104;50.732;10.174;2023-02-16T09:09:48;98870.75;;;2.53;94.28
19884;BME280;10104;50.732;10.174;2023-02-16T09:12:09;98883.97;;;2.73;93.81
19884;BME280;10104;50.732;10.174;2023-02-16T09:14:31;98882.56;;;2.80;93.30
19884;BME280;10104;50.732;10.174;2023-02-16T09:16:53;98883.69;;;2.89;93.40
19884;BME280;10104;50.732;10.174;2023-02-16T09:19:18;98893.31;;;3.00;92.36
19884;BME280;10104;50.732;10.174;2023-02-16T09:21:40;98886.56;;;3.08;91.76
19884;BME280;10104;50.732;10.174;2023-02-16T09:24:03;98895.03;;;3.23;91.25
19884;BME280;10104;50.732;10.174;2023-02-16T09:26:25;98885.59;;;3.09;92.10
19884;BME280;10104;50.732;10.174;2023-02-16T09:28:48;98885.13;;;3.04;92.43
19884;BME280;10104;50.732;10.174;2023-02-16T09:31:19;98879.41;;;2.88;93.53
19884;BME280;10104;50.732;10.174;2023-02-16T09:33:45;98885.69;;;2.85;94.42
19884;BME280;10104;50.732;10.174;2023-02-16T09:36:09;98888.63;;;2.81;94.81
19884;BME280;10104;50.732;10.174;2023-02-16T09:38:31;98888.75;;;2.79;95.38
19884;BME280;10104;50.732;10.174;2023-02-16T09:40:55;98884.13;;;2.83;95.29
19884;BME280;10104;50.732;10.174;2023-02-16T09:45:52;98891.81;;;3.08;94.86
19884;BME280;10104;50.732;10.174;2023-02-16T09:48:36;98895.13;;;3.21;93.59
19884;BME280;10104;50.732;10.174;2023-02-16T09:51:04;98886.94;;;3.37;92.49
19884;BME280;10104;50.732;10.174;2023-02-16T09:53:36;98881.59;;;3.50;92.08
19884;BME280;10104;50.732;10.174;2023-02-16T09:58:56;98873.63;;;3.51;92.89
19884;BME280;10104;50.732;10.174;2023-02-16T10:04:24;98869.34;;;3.50;92.93
19884;BME280;10104;50.732;10.174;2023-02-16T10:06:58;98873.16;;;3.69;92.17
19884;BME280;10104;50.732;10.174;2023-02-16T10:09:22;98871.84;;;3.63;92.97
19884;BME280;10104;50.732;10.174;2023-02-16T10:11:54;98878.97;;;3.72;93.34
19884;BME280;10104;50.732;10.174;2023-02-16T10:14:41;98873.75;;;3.61;93.91
19884;BME280;10104;50.732;10.174;2023-02-16T10:20:04;98869.72;;;3.57;94.95
19884;BME280;10104;50.732;10.174;2023-02-16T10:22:47;98872.66;;;3.52;95.28
19884;BME280;10104;50.732;10.174;2023-02-16T10:25:12;98875.63;;;3.59;95.07
19884;BME280;10104;50.732;10.174;2023-02-16T10:27:40;98873.09;;;3.91;93.93
19884;BME280;10104;50.732;10.174;2023-02-16T10:30:30;98875.91;;;4.10;92.61
19884;BME280;10104;50.732;10.174;2023-02-16T10:35:24;98865.75;;;4.28;91.83
19884;BME280;10104;50.732;10.174;2023-02-16T10:40:47;98862.81;;;4.10;92.04
19884;BME280;10104;50.732;10.174;2023-02-16T10:43:18;98869.34;;;4.16;92.01
19884;BME280;10104;50.732;10.174;2023-02-16T10:45:53;98863.22;;;4.26;90.88
19884;BME280;10104;50.732;10.174;2023-02-16T10:48:16;98873.50;;;4.29;90.35
19884;BME280;10104;50.732;10.174;2023-02-16T10:51:00;98871.59;;;4.31;90.58
19884;BME280;10104;50.732;10.174;2023-02-16T10:55:53;98881.25;;;4.52;90.01
19884;BME280;10104;50.732;10.174;2023-02-16T10:58:19;98863.81;;;4.62;89.02
19884;BME280;10104;50.732;10.174;2023-02-16T11:01:03;98863.50;;;4.76;87.96
19884;BME280;10104;50.732;10.174;2023-02-16T11:03:30;98857.06;;;4.80;87.90
19884;BME280;10104;50.732;10.174;2023-02-16T11:05:55;98862.34;;;4.89;88.01
19884;BME280;10104;50.732;10.174;2023-02-16T11:08:17;98854.91;;;4.95;87.85
19884;BME280;10104;50.732;10.174;2023-02-16T11:10:50;98853.72;;;4.99;87.07
19884;BME280;10104;50.732;10.174;2023-02-16T11:13:32;98846.00;;;5.07;86.26
19884;BME280;10104;50.732;10.174;2023-02-16T11:15:57;98849.31;;;4.99;86.50
19884;BME280;10104;50.732;10.174;2023-02-16T11:18:37;98843.22;;;4.99;86.25
19884;BME280;10104;50.732;10.174;2023-02-16T11:21:00;98841.47;;;4.88;86.67
19884;BME280;10104;50.732;10.174;2023-02-16T11:23:29;98839.06;;;4.96;86.92
19884;BME280;10104;50.732;10.174;2023-02-16T11:30:47;98820.59;;;5.07;87.65
19884;BME280;10104;50.732;10.174;2023-02-16T11:33:24;98829.94;;;5.21;86.83
19884;BME280;10104;50.732;10.174;2023-02-16T11:35:47;98820.75;;;5.36;87.24
19884;BME280;10104;50.732;10.174;2023-02-16T11:40:50;98819.22;;;5.74;84.80
19884;BME280;10104;50.732;10.174;2023-02-16T11:43:16;98819.00;;;5.96;83.75
19884;BME280;10104;50.732;10.174;2023-02-16T11:45:39;98824.25;;;5.96;83.29
19884;BME280;10104;50.732;10.174;2023-02-16T11:48:11;98812.66;;;6.27;79.73
19884;BME280;10104;50.732;10.174;2023-02-16T11:50:36;98802.84;;;6.10;80.07
19884;BME280;10104;50.732;10.174;2023-02-16T11:55:32;98815.56;;;6.24;78.60
19884;BME280;10104;50.732;10.174;2023-02-16T11:57:54;98813.78;;;6.15;79.06
19884;BME280;10104;50.732;10.174;2023-02-16T12:00:20;98803.38;;;6.14;77.28
19884;BME280;10104;50.732;10.174;2023-02-16T12:03:21;98807.41;;;6.08;78.40
19884;BME280;10104;50.732;10.174;2023-02-16T12:19:25;98799.28;;;5.71;80.34
19884;BME280;10104;50.732;10.174;2023-02-16T12:22:01;98791.78;;;5.57;80.04
19884;BME280;10104;50.732;10.174;2023-02-16T12:27:02;98761.78;;;5.59;81.36
19884;BME280;10104;50.732;10.174;2023-02-16T12:37:19;98770.31;;;6.01;79.15
19884;BME280;10104;50.732;10.174;2023-02-16T12:45:00;98757.72;;;6.15;78.80
19884;BME280;10104;50.732;10.174;2023-02-16T12:47:29;98753.84;;;6.28;78.86
19884;BME280;10104;50.732;10.174;2023-02-16T12:49:55;98753.97;;;6.46;77.47
19884;BME280;10104;50.732;10.174;2023-02-16T12:52:35;98754.06;;;6.64;77.17
19884;BME280;10104;50.732;10.174;2023-02-16T12:57:53;98745.50;;;6.99;75.57
19884;BME280;10104;50.732;10.174;2023-02-16T13:00:35;98734.31;;;7.24;74.34
19884;BME280;10104;50.732;10.174;2023-02-16T13:03:12;98741.06;;;7.54;73.77
19884;BME280;10104;50.732;10.174;2023-02-16T13:05:36;98738.63;;;7.88;72.56
19884;BME280;10104;50.732;10.174;2023-02-16T13:08:11;98734.06;;;8.07;72.41
19884;BME280;10104;50.732;10.174;2023-02-16T13:10:55;98728.38;;;8.20;70.89
19884;BME280;10104;50.732;10.174;2023-02-16T13:13:23;98727.09;;;8.42;70.26
19884;BME280;10104;50.732;10.174;2023-02-16T13:15:59;98726.84;;;8.53;69.91
19884;BME280;10104;50.732;10.174;2023-02-16T13:18:25;98730.09;;;8.29;68.98
19884;BME280;10104;50.732;10.174;2023-02-16T13:20:52;98732.59;;;8.74;70.16
19884;BME280;10104;50.732;10.174;2023-02-16T13:29:33;98724.78;;;9.32;69.36
19884;BME280;10104;50.732;10.174;2023-02-16T13:34:51;98716.44;;;9.53;67.28
19884;BME280;10104;50.732;10.174;2023-02-16T13:40:33;98715.97;;;9.66;67.03
19884;BME280;10104;50.732;10.174;2023-02-16T13:43:15;98717.84;;;9.98;66.14
19884;BME280;10104;50.732;10.174;2023-02-16T13:45:43;98716.56;;;10.26;64.20
19884;BME280;10104;50.732;10.174;2023-02-16T13:48:14;98712.41;;;10.15;63.96
19884;BME280;10104;50.732;10.174;2023-02-16T13:50:36;98701.81;;;10.07;63.42
19884;BME280;10104;50.732;10.174;2023-02-16T13:53:19;98702.47;;;9.85;63.51
19884;BME280;10104;50.732;10.174;2023-02-16T13:55:41;98699.59;;;9.54;64.58
19884;BME280;10104;50.732;10.174;2023-02-16T14:00:36;98702.41;;;9.11;65.40
19884;BME280;10104;50.732;10.174;2023-02-16T14:13:16;98692.28;;;8.98;67.82
19884;BME280;10104;50.732;10.174;2023-02-16T14:15:49;98689.41;;;8.83;68.10
19884;BME280;10104;50.732;10.174;2023-02-16T14:21:05;98683.81;;;8.86;66.98
19884;BME280;10104;50.732;10.174;2023-02-16T14:23:36;98684.78;;;8.85;66.49
19884;BME280;10104;50.732;10.174;2023-02-16T14:26:03;98686.53;;;9.03;66.72
19884;BME280;10104;50.732;10.174;2023-02-16T14:30:53;98676.41;;;8.90;66.60
19884;BME280;10104;50.732;10.174;2023-02-16T14:33:20;98671.34;;;8.71;67.69
19884;BME280;10104;50.732;10.174;2023-02-16T14:38:42;98683.19;;;8.33;68.65
19884;BME280;10104;50.732;10.174;2023-02-16T14:41:51;98682.72;;;8.20;69.25
19884;BME280;10104;50.732;10.174;2023-02-16T14:43:49;98682.56;;;8.03;70.57
19884;BME280;10104;50.732;10.174;2023-02-16T14:50:11;98689.44;;;7.79;71.49
19884;BME280;10104;50.732;10.174;2023-02-16T14:57:41;98686.13;;;7.59;72.60
19884;BME280;10104;50.732;10.174;2023-02-16T15:03:00;98700.19;;;7.50;73.49
19884;BME280;10104;50.732;10.174;2023-02-16T15:05:26;98691.59;;;7.48;73.78